Time;durP1;ratioP1;P1;durP2;ratioP2;P2;SDS_P1;SDS_P2;PMS_P1;PMS_P2;Temp;Humidity;BMP_temperature;BMP_pressure;BME280_temperature;BME280_humidity;BME280_pressure;Samples;Min_cycle;Max_cycle;Signal;HPM_P1;HPM_P2
2023/06/20 00:01:13;;;;;;;10.45;6.68;;;;;;;;;;5031423;28;20216;-60
2023/06/20 00:03:38;;;;;;;9.85;5.60;;;;;;;;;;5030900;28;20234;-60
2023/06/20 00:06:03;;;;;;;9.85;6.28;;;;;;;;;;5012277;28;20316;-60
2023/06/20 00:08:28;;;;;;;10.60;6.60;;;;;;;;;;5017524;28;20208;-60
2023/06/20 00:10:54;;;;;;;10.23;6.05;;;;;;;;;;5032655;28;20298;-60
2023/06/20 00:13:19;;;;;;;9.30;6.13;;;;;;;;;;5031346;28;20265;-60
2023/06/20 00:15:44;;;;;;;9.93;6.88;;;;;;;;;;5019179;28;20216;-61
2023/06/20 00:18:10;;;;;;;9.73;6.70;;;;;;;;;;5012082;28;20217;-60
2023/06/20 00:20:36;;;;;;;10.43;6.32;;;;;;;;;;5012770;28;20220;-60
2023/06/20 00:23:02;;;;;;;8.82;6.05;;;;;;;;;;5011533;28;20243;-60
2023/06/20 00:25:27;;;;;;;11.15;6.38;;;;;;;;;;5012445;28;20610;-60
2023/06/20 00:27:52;;;;;;;8.73;6.40;;;;;;;;;;5011892;28;20307;-60
2023/06/20 00:30:18;;;;;;;9.57;6.70;;;;;;;;;;5012183;28;20228;-60
2023/06/20 00:32:43;;;;;;;9.48;6.22;;;;;;;;;;5012341;28;20213;-60
2023/06/20 00:35:09;;;;;;;10.55;6.75;;;;;;;;;;5011146;28;20220;-60
2023/06/20 00:37:36;;;;;;;10.65;6.75;;;;;;;;;;5012566;28;20213;-61
2023/06/20 00:40:03;;;;;;;8.60;6.35;;;;;;;;;;5011739;28;20244;-60
2023/06/20 00:42:28;;;;;;;9.43;6.43;;;;;;;;;;5011652;28;20268;-60
2023/06/20 00:44:54;;;;;;;9.30;6.60;;;;;;;;;;5012363;28;20680;-60
2023/06/20 00:47:19;;;;;;;11.27;6.90;;;;;;;;;;5011695;28;21426;-60
2023/06/20 00:49:46;;;;;;;9.73;6.20;;;;;;;;;;5011722;28;20227;-60
2023/06/20 00:52:12;;;;;;;10.32;6.43;;;;;;;;;;5011929;28;20236;-60
2023/06/20 00:54:38;;;;;;;8.77;6.82;;;;;;;;;;5018488;28;20659;-60
2023/06/20 00:57:04;;;;;;;10.07;6.80;;;;;;;;;;5011309;28;20219;-60
2023/06/20 00:59:29;;;;;;;9.23;6.40;;;;;;;;;;5010930;28;20574;-60
2023/06/20 01:01:54;;;;;;;9.13;6.68;;;;;;;;;;5010960;28;20217;-60
2023/06/20 01:04:20;;;;;;;10.50;6.63;;;;;;;;;;5010997;28;20227;-60
2023/06/20 01:06:59;;;;;;;9.52;6.90;;;;;;;;;;5012127;28;20307;-60
2023/06/20 01:09:27;;;;;;;10.35;6.78;;;;;;;;;;5023597;28;20584;-61
2023/06/20 01:11:57;;;;;;;8.45;6.93;;;;;;;;;;5029876;28;20215;-60
2023/06/20 01:14:31;;;;;;;9.60;6.95;;;;;;;;;;5028675;28;20223;-60
2023/06/20 01:16:58;;;;;;;7.95;6.10;;;;;;;;;;5012113;28;20223;-61
2023/06/20 01:19:23;;;;;;;12.75;7.00;;;;;;;;;;5010878;28;20236;-60
2023/06/20 01:21:50;;;;;;;10.93;6.80;;;;;;;;;;5011896;28;20244;-61
2023/06/20 01:24:24;;;;;;;13.82;7.25;;;;;;;;;;5011111;28;20261;-61
2023/06/20 01:26:50;;;;;;;11.13;6.63;;;;;;;;;;5014374;28;20220;-60
2023/06/20 01:29:18;;;;;;;11.32;6.82;;;;;;;;;;5015251;28;20635;-61
2023/06/20 01:31:46;;;;;;;12.45;6.72;;;;;;;;;;5013577;28;20264;-61
2023/06/20 01:34:13;;;;;;;11.07;7.18;;;;;;;;;;5013829;28;20231;-60
2023/06/20 01:36:39;;;;;;;8.60;6.63;;;;;;;;;;5014353;28;20209;-60
2023/06/20 01:39:08;;;;;;;10.65;7.15;;;;;;;;;;5014410;28;20282;-61
2023/06/20 01:41:35;;;;;;;11.23;7.03;;;;;;;;;;5013771;28;20290;-61
2023/06/20 01:44:01;;;;;;;11.27;6.82;;;;;;;;;;5013729;28;20212;-60
2023/06/20 01:46:26;;;;;;;10.20;7.03;;;;;;;;;;5013221;28;20231;-60
2023/06/20 01:48:51;;;;;;;12.18;6.95;;;;;;;;;;5013928;28;20220;-60
2023/06/20 01:51:16;;;;;;;10.95;6.80;;;;;;;;;;5013584;28;20216;-60
2023/06/20 01:53:42;;;;;;;11.25;7.57;;;;;;;;;;5013292;28;20216;-60
2023/06/20 01:56:07;;;;;;;8.35;6.60;;;;;;;;;;5025931;28;20215;-60
2023/06/20 01:58:33;;;;;;;10.95;7.32;;;;;;;;;;5034957;28;20342;-60
2023/06/20 02:00:58;;;;;;;9.73;6.47;;;;;;;;;;5034035;28;20300;-61
2023/06/20 02:03:26;;;;;;;10.15;6.68;;;;;;;;;;5034160;28;20288;-60
2023/06/20 02:05:52;;;;;;;9.95;6.68;;;;;;;;;;5014813;28;20624;-61
2023/06/20 02:08:17;;;;;;;11.00;6.60;;;;;;;;;;5017843;28;20663;-60
2023/06/20 02:10:42;;;;;;;10.15;7.10;;;;;;;;;;5033130;28;20243;-60
2023/06/20 02:13:08;;;;;;;11.23;7.18;;;;;;;;;;5032969;28;20207;-60
2023/06/20 02:15:34;;;;;;;11.13;7.22;;;;;;;;;;5022859;28;20296;-60
2023/06/20 02:18:02;;;;;;;12.00;7.32;;;;;;;;;;5014558;28;20710;-60
2023/06/20 02:20:27;;;;;;;10.02;7.70;;;;;;;;;;5013594;28;20283;-61
2023/06/20 02:22:55;;;;;;;11.32;7.00;;;;;;;;;;5013074;28;20299;-61
2023/06/20 02:25:22;;;;;;;10.25;7.78;;;;;;;;;;5013992;28;20224;-61
2023/06/20 02:27:48;;;;;;;9.80;7.82;;;;;;;;;;5013665;28;20228;-61
2023/06/20 02:30:13;;;;;;;9.10;7.15;;;;;;;;;;5013008;28;20222;-60
2023/06/20 02:32:39;;;;;;;13.45;7.68;;;;;;;;;;5013118;28;20327;-61
2023/06/20 02:35:04;;;;;;;10.23;7.43;;;;;;;;;;5012585;28;20209;-60
2023/06/20 02:37:32;;;;;;;10.68;7.75;;;;;;;;;;5014093;28;20247;-60
2023/06/20 02:39:57;;;;;;;11.25;7.65;;;;;;;;;;5014202;28;20232;-60
2023/06/20 02:42:23;;;;;;;9.77;7.47;;;;;;;;;;5012956;28;20219;-60
2023/06/20 02:44:49;;;;;;;9.23;7.07;;;;;;;;;;5014227;28;20208;-61
2023/06/20 02:47:16;;;;;;;12.98;8.35;;;;;;;;;;5013809;28;20259;-61
2023/06/20 02:49:44;;;;;;;12.48;8.00;;;;;;;;;;5013607;28;20271;-60
2023/06/20 02:52:09;;;;;;;11.55;7.80;;;;;;;;;;5013727;28;20217;-61
2023/06/20 02:54:36;;;;;;;9.55;7.53;;;;;;;;;;5013908;28;20243;-61
2023/06/20 02:57:02;;;;;;;9.85;7.90;;;;;;;;;;5032658;28;20258;-60
2023/06/20 02:59:27;;;;;;;11.23;7.90;;;;;;;;;;5032504;28;20305;-60
2023/06/20 03:01:55;;;;;;;13.27;7.85;;;;;;;;;;5032590;28;20287;-60
2023/06/20 03:04:21;;;;;;;11.00;7.70;;;;;;;;;;5024944;28;20287;-60
2023/06/20 03:06:46;;;;;;;11.23;8.70;;;;;;;;;;5012405;28;20695;-61
2023/06/20 03:09:11;;;;;;;13.00;9.10;;;;;;;;;;5023310;28;20291;-60
2023/06/20 03:11:36;;;;;;;11.85;8.23;;;;;;;;;;5031358;28;20222;-60
2023/06/20 03:14:03;;;;;;;12.07;8.80;;;;;;;;;;5032841;28;20211;-60
2023/06/20 03:16:30;;;;;;;10.82;7.90;;;;;;;;;;5015063;28;20227;-61
2023/06/20 03:18:56;;;;;;;9.20;7.70;;;;;;;;;;5012544;28;20218;-61
2023/06/20 03:21:21;;;;;;;12.50;8.70;;;;;;;;;;5013061;28;20212;-62
2023/06/20 03:23:47;;;;;;;11.88;8.70;;;;;;;;;;5012609;28;20212;-62
2023/06/20 03:26:12;;;;;;;14.05;8.68;;;;;;;;;;4989084;28;20597;-61
2023/06/20 03:28:37;;;;;;;14.07;8.60;;;;;;;;;;5001037;28;20220;-62
2023/06/20 03:31:03;;;;;;;12.25;9.10;;;;;;;;;;4982730;28;20249;-61
2023/06/20 03:33:28;;;;;;;14.02;8.18;;;;;;;;;;4991315;28;20248;-62
2023/06/20 03:35:54;;;;;;;11.77;8.60;;;;;;;;;;4996244;28;20212;-62
2023/06/20 03:38:19;;;;;;;13.40;8.55;;;;;;;;;;4993676;28;20256;-61
2023/06/20 03:40:44;;;;;;;10.77;8.80;;;;;;;;;;4994997;28;20243;-61
2023/06/20 03:43:10;;;;;;;10.65;8.68;;;;;;;;;;4984937;28;20317;-62
2023/06/20 03:45:35;;;;;;;10.43;8.18;;;;;;;;;;4983411;28;20228;-61
2023/06/20 03:48:00;;;;;;;10.75;8.43;;;;;;;;;;4982587;28;20220;-62
2023/06/20 03:50:26;;;;;;;11.45;9.02;;;;;;;;;;4983477;28;20212;-61
2023/06/20 03:52:51;;;;;;;12.98;9.10;;;;;;;;;;4982747;28;20224;-62
2023/06/20 03:55:16;;;;;;;10.98;8.43;;;;;;;;;;4983481;28;20213;-62
2023/06/20 03:57:42;;;;;;;13.18;9.32;;;;;;;;;;4978549;28;20259;-62
2023/06/20 04:00:11;;;;;;;11.05;8.65;;;;;;;;;;4977618;28;20764;-61
2023/06/20 04:02:37;;;;;;;10.05;8.38;;;;;;;;;;4994833;28;20307;-62
2023/06/20 04:05:02;;;;;;;11.40;9.27;;;;;;;;;;4986707;28;20224;-61
2023/06/20 04:07:31;;;;;;;13.52;9.02;;;;;;;;;;4982279;28;20225;-62
2023/06/20 04:09:56;;;;;;;13.40;9.85;;;;;;;;;;4985749;28;20287;-61
2023/06/20 04:12:22;;;;;;;13.30;9.85;;;;;;;;;;4982568;28;20683;-62
2023/06/20 04:14:47;;;;;;;12.00;9.77;;;;;;;;;;4982827;28;20313;-61
2023/06/20 04:17:12;;;;;;;14.15;10.27;;;;;;;;;;4982988;28;20572;-61
2023/06/20 04:19:38;;;;;;;14.75;10.23;;;;;;;;;;4980718;28;21069;-61
2023/06/20 04:22:03;;;;;;;15.77;10.05;;;;;;;;;;4974651;28;20217;-61
2023/06/20 04:24:28;;;;;;;15.60;11.10;;;;;;;;;;4974966;28;20231;-61
2023/06/20 04:26:54;;;;;;;15.20;11.13;;;;;;;;;;4997103;28;20630;-62
2023/06/20 04:29:20;;;;;;;16.38;11.52;;;;;;;;;;5030820;28;22824;-61
2023/06/20 04:31:45;;;;;;;15.15;10.95;;;;;;;;;;5032456;28;20216;-61
2023/06/20 04:34:10;;;;;;;13.98;10.70;;;;;;;;;;5000130;28;20217;-61
2023/06/20 04:36:35;;;;;;;13.77;11.55;;;;;;;;;;4981790;28;20221;-61
2023/06/20 04:39:02;;;;;;;14.23;10.70;;;;;;;;;;4982232;28;20635;-61
2023/06/20 04:41:28;;;;;;;13.00;11.15;;;;;;;;;;4982265;28;20225;-61
2023/06/20 04:43:53;;;;;;;16.63;10.20;;;;;;;;;;5002263;28;20212;-61
2023/06/20 04:46:19;;;;;;;14.32;10.82;;;;;;;;;;5001745;28;20236;-62
2023/06/20 04:48:45;;;;;;;14.93;10.65;;;;;;;;;;5001512;28;20213;-61
2023/06/20 04:51:11;;;;;;;12.23;10.65;;;;;;;;;;4999949;28;20290;-61
2023/06/20 04:53:36;;;;;;;16.02;11.00;;;;;;;;;;4993676;28;20208;-62
2023/06/20 04:56:02;;;;;;;13.70;10.95;;;;;;;;;;4981210;28;20225;-60
2023/06/20 04:58:28;;;;;;;14.85;10.70;;;;;;;;;;4976963;28;20213;-61
2023/06/20 05:00:57;;;;;;;12.35;10.35;;;;;;;;;;4986570;28;20595;-62
2023/06/20 05:03:23;;;;;;;13.48;10.35;;;;;;;;;;4985861;28;20205;-61
2023/06/20 05:05:48;;;;;;;13.77;10.85;;;;;;;;;;4987238;28;20221;-62
2023/06/20 05:08:14;;;;;;;14.73;10.82;;;;;;;;;;4986882;28;20221;-61
2023/06/20 05:10:39;;;;;;;13.98;11.23;;;;;;;;;;5004822;28;20213;-62
2023/06/20 05:13:05;;;;;;;16.65;10.55;;;;;;;;;;5005638;28;20227;-62
2023/06/20 05:15:30;;;;;;;13.35;11.20;;;;;;;;;;4988699;28;20255;-63
2023/06/20 05:17:55;;;;;;;11.90;10.45;;;;;;;;;;4977667;28;20221;-62
2023/06/20 05:20:21;;;;;;;13.82;10.75;;;;;;;;;;4977795;28;20228;-61
2023/06/20 05:22:46;;;;;;;19.13;10.98;;;;;;;;;;4985599;28;21494;-62
2023/06/20 05:25:11;;;;;;;12.48;10.75;;;;;;;;;;4985099;28;20755;-61
2023/06/20 05:27:37;;;;;;;15.75;11.27;;;;;;;;;;5005249;28;20224;-62
2023/06/20 05:30:02;;;;;;;15.02;10.60;;;;;;;;;;5005213;28;20220;-61
2023/06/20 05:32:28;;;;;;;13.82;10.95;;;;;;;;;;5003135;28;20610;-62
2023/06/20 05:34:53;;;;;;;12.88;10.77;;;;;;;;;;4986517;28;20566;-61
2023/06/20 05:37:19;;;;;;;17.58;11.60;;;;;;;;;;4980429;28;20248;-62
2023/06/20 05:39:44;;;;;;;14.00;11.70;;;;;;;;;;4977783;28;20448;-63
2023/06/20 05:42:09;;;;;;;12.90;11.52;;;;;;;;;;4994423;28;20719;-62
2023/06/20 05:44:36;;;;;;;16.00;11.75;;;;;;;;;;5001150;28;20578;-61
2023/06/20 05:47:02;;;;;;;14.30;11.15;;;;;;;;;;5004545;28;20232;-62
2023/06/20 05:49:27;;;;;;;13.10;11.05;;;;;;;;;;5008622;28;20216;-62
2023/06/20 05:51:54;;;;;;;14.80;11.70;;;;;;;;;;5024687;28;20216;-61
2023/06/20 05:54:22;;;;;;;13.45;11.30;;;;;;;;;;5034325;28;20222;-62
2023/06/20 05:56:48;;;;;;;17.13;11.68;;;;;;;;;;5034791;28;20204;-62
2023/06/20 05:59:14;;;;;;;15.38;11.75;;;;;;;;;;5033612;28;20223;-62
2023/06/20 06:01:40;;;;;;;16.65;11.55;;;;;;;;;;5026762;28;20243;-62
2023/06/20 06:04:05;;;;;;;13.82;11.23;;;;;;;;;;5013275;28;20222;-60
2023/06/20 06:06:31;;;;;;;24.50;11.85;;;;;;;;;;5014501;28;20220;-61
2023/06/20 06:08:56;;;;;;;16.45;12.25;;;;;;;;;;5023788;28;20211;-61
2023/06/20 06:11:22;;;;;;;13.65;11.75;;;;;;;;;;5015645;28;20204;-61
2023/06/20 06:13:47;;;;;;;16.80;12.00;;;;;;;;;;5013789;28;20212;-60
2023/06/20 06:16:13;;;;;;;14.88;12.13;;;;;;;;;;5014096;28;20213;-61
2023/06/20 06:18:38;;;;;;;13.90;11.93;;;;;;;;;;5014560;28;20270;-61
2023/06/20 06:21:03;;;;;;;12.95;11.52;;;;;;;;;;5013487;28;20213;-61
2023/06/20 06:23:29;;;;;;;14.10;12.52;;;;;;;;;;5014681;28;20631;-62
2023/06/20 06:25:54;;;;;;;14.15;11.70;;;;;;;;;;5014034;28;20705;-62
2023/06/20 06:28:21;;;;;;;16.58;12.73;;;;;;;;;;5013366;28;20224;-62
2023/06/20 06:30:47;;;;;;;14.23;12.30;;;;;;;;;;5014421;28;20224;-62
2023/06/20 06:33:12;;;;;;;13.80;12.32;;;;;;;;;;5013809;28;20212;-62
2023/06/20 06:35:37;;;;;;;14.25;12.75;;;;;;;;;;5013744;28;20250;-62
2023/06/20 06:38:03;;;;;;;17.05;13.57;;;;;;;;;;5013850;28;20269;-63
2023/06/20 06:40:29;;;;;;;15.75;12.07;;;;;;;;;;5013508;28;20239;-61
2023/06/20 06:42:54;;;;;;;15.48;12.43;;;;;;;;;;5017508;28;20208;-62
2023/06/20 06:45:19;;;;;;;14.70;12.35;;;;;;;;;;5016325;28;20219;-62
2023/06/20 06:47:45;;;;;;;21.15;13.57;;;;;;;;;;5013040;28;20228;-62
2023/06/20 06:50:10;;;;;;;17.92;14.00;;;;;;;;;;5013452;28;20204;-62
2023/06/20 06:52:35;;;;;;;15.02;13.20;;;;;;;;;;4998102;28;20259;-61
2023/06/20 06:55:01;;;;;;;15.65;14.10;;;;;;;;;;5007279;28;20203;-62
2023/06/20 06:57:26;;;;;;;13.88;12.48;;;;;;;;;;5022698;28;20270;-62
2023/06/20 06:59:51;;;;;;;15.05;12.75;;;;;;;;;;5013959;28;20287;-62
2023/06/20 07:02:17;;;;;;;16.40;14.13;;;;;;;;;;5010542;28;20303;-61
2023/06/20 07:04:42;;;;;;;17.35;12.82;;;;;;;;;;5013863;28;20220;-62
2023/06/20 07:07:07;;;;;;;17.25;15.18;;;;;;;;;;5013202;28;20248;-62
2023/06/20 07:09:33;;;;;;;16.02;13.45;;;;;;;;;;5020317;28;20299;-62
2023/06/20 07:11:58;;;;;;;16.33;14.63;;;;;;;;;;5013501;28;20232;-62
2023/06/20 07:14:23;;;;;;;14.93;13.00;;;;;;;;;;5011873;28;20267;-62
2023/06/20 07:16:49;;;;;;;14.95;13.40;;;;;;;;;;4992988;28;20209;-62
2023/06/20 07:19:14;;;;;;;17.85;13.25;;;;;;;;;;4993465;28;20217;-63
2023/06/20 07:21:39;;;;;;;17.23;13.43;;;;;;;;;;4993749;28;20221;-62
2023/06/20 07:24:05;;;;;;;15.32;12.32;;;;;;;;;;4992339;28;20226;-62
2023/06/20 07:26:30;;;;;;;13.40;11.05;;;;;;;;;;4993572;28;20224;-62
2023/06/20 07:28:55;;;;;;;14.60;12.90;;;;;;;;;;4993811;28;20263;-62
2023/06/20 07:31:21;;;;;;;20.33;13.57;;;;;;;;;;4992682;28;20213;-62
2023/06/20 07:33:47;;;;;;;15.30;13.35;;;;;;;;;;4993376;28;20300;-62
2023/06/20 07:36:13;;;;;;;17.70;13.55;;;;;;;;;;5001889;28;20200;-62
2023/06/20 07:38:38;;;;;;;16.10;13.15;;;;;;;;;;5032141;28;20220;-62
2023/06/20 07:41:03;;;;;;;13.02;10.88;;;;;;;;;;5001983;28;20561;-62
2023/06/20 07:43:29;;;;;;;16.33;11.55;;;;;;;;;;4993510;28;20209;-62
2023/06/20 07:45:54;;;;;;;13.85;11.75;;;;;;;;;;4992649;28;20216;-62
2023/06/20 07:48:19;;;;;;;13.98;11.57;;;;;;;;;;4992789;28;20228;-62
2023/06/20 07:50:45;;;;;;;13.93;10.48;;;;;;;;;;5020580;28;20258;-62
2023/06/20 07:53:10;;;;;;;13.05;10.93;;;;;;;;;;5007465;28;20762;-62
2023/06/20 07:55:36;;;;;;;12.88;9.68;;;;;;;;;;5020604;28;20215;-62
2023/06/20 07:58:01;;;;;;;11.18;8.98;;;;;;;;;;5031306;28;20215;-62
2023/06/20 08:00:28;;;;;;;10.93;9.27;;;;;;;;;;5031234;28;20212;-62
2023/06/20 08:02:54;;;;;;;14.45;9.93;;;;;;;;;;5011023;28;20232;-62
2023/06/20 08:05:19;;;;;;;10.98;9.75;;;;;;;;;;5026530;28;20265;-62
2023/06/20 08:07:44;;;;;;;14.03;10.37;;;;;;;;;;5031873;28;20432;-61
2023/06/20 08:10:11;;;;;;;14.15;10.52;;;;;;;;;;5012273;28;20771;-62
2023/06/20 08:12:37;;;;;;;14.15;10.85;;;;;;;;;;5011725;28;20216;-61
2023/06/20 08:15:02;;;;;;;12.32;9.48;;;;;;;;;;5012103;28;20209;-63
2023/06/20 08:17:27;;;;;;;14.73;11.05;;;;;;;;;;5019707;28;20223;-64
2023/06/20 08:19:53;;;;;;;12.32;10.73;;;;;;;;;;5025746;28;20298;-63
2023/06/20 08:22:18;;;;;;;12.98;11.07;;;;;;;;;;5031986;28;20216;-62
2023/06/20 08:24:43;;;;;;;16.17;11.30;;;;;;;;;;5032110;28;20219;-63
2023/06/20 08:27:09;;;;;;;13.15;10.85;;;;;;;;;;5030950;28;20220;-63
2023/06/20 08:29:34;;;;;;;17.58;11.60;;;;;;;;;;5032325;28;20211;-63
2023/06/20 08:32:00;;;;;;;16.80;10.82;;;;;;;;;;5032179;28;20215;-63
2023/06/20 08:34:25;;;;;;;13.30;10.52;;;;;;;;;;5035316;28;20207;-63
2023/06/20 08:36:50;;;;;;;12.48;9.95;;;;;;;;;;5038854;28;20215;-62
2023/06/20 08:39:17;;;;;;;13.10;10.00;;;;;;;;;;5037997;28;20231;-63
2023/06/20 08:41:43;;;;;;;14.38;11.70;;;;;;;;;;5037774;28;20223;-64
2023/06/20 08:44:09;;;;;;;12.85;11.20;;;;;;;;;;5037756;28;20217;-64
2023/06/20 08:46:34;;;;;;;14.30;11.15;;;;;;;;;;5038274;28;20223;-65
2023/06/20 08:49:00;;;;;;;13.60;11.13;;;;;;;;;;5037588;28;20216;-65
2023/06/20 08:51:26;;;;;;;16.63;11.25;;;;;;;;;;5021749;28;20204;-64
2023/06/20 08:53:53;;;;;;;15.90;11.13;;;;;;;;;;5017868;28;20220;-63
2023/06/20 08:56:18;;;;;;;17.08;13.15;;;;;;;;;;5030299;28;20219;-63
2023/06/20 08:58:43;;;;;;;13.32;11.77;;;;;;;;;;5038378;28;20204;-62
2023/06/20 09:01:11;;;;;;;14.55;9.63;;;;;;;;;;5031293;28;20658;-63
2023/06/20 09:03:37;;;;;;;12.77;11.13;;;;;;;;;;5028270;28;20219;-63
2023/06/20 09:06:02;;;;;;;14.27;11.20;;;;;;;;;;5018630;28;20208;-63
2023/06/20 09:08:34;;;;;;;12.80;9.68;;;;;;;;;;5021980;28;20231;-64
2023/06/20 09:11:06;;;;;;;11.27;9.38;;;;;;;;;;5026460;28;20244;-63
2023/06/20 09:13:32;;;;;;;13.65;10.57;;;;;;;;;;5020258;28;20216;-63
2023/06/20 09:16:03;;;;;;;9.52;8.52;;;;;;;;;;5015568;28;20295;-64
2023/06/20 09:18:29;;;;;;;10.98;8.48;;;;;;;;;;5016957;28;20212;-63
2023/06/20 09:20:57;;;;;;;10.02;7.53;;;;;;;;;;5018464;28;20700;-64
2023/06/20 09:23:29;;;;;;;8.93;7.05;;;;;;;;;;5015579;28;20217;-63
2023/06/20 09:25:56;;;;;;;10.45;6.78;;;;;;;;;;5018350;28;20217;-63
2023/06/20 09:28:21;;;;;;;8.88;7.05;;;;;;;;;;5017791;28;20248;-63
2023/06/20 09:30:48;;;;;;;7.55;5.78;;;;;;;;;;5036284;28;20236;-63
2023/06/20 09:33:14;;;;;;;9.20;6.72;;;;;;;;;;5036113;28;20216;-63
2023/06/20 09:35:39;;;;;;;8.50;6.50;;;;;;;;;;5018267;28;20687;-63
2023/06/20 09:38:05;;;;;;;9.60;6.50;;;;;;;;;;5016329;28;20288;-64
2023/06/20 09:40:30;;;;;;;8.25;6.10;;;;;;;;;;5017900;28;20220;-64
2023/06/20 09:42:56;;;;;;;9.40;6.32;;;;;;;;;;5029845;28;20224;-64
2023/06/20 09:45:21;;;;;;;13.30;7.28;;;;;;;;;;5026046;28;20567;-64
2023/06/20 09:47:47;;;;;;;9.25;6.75;;;;;;;;;;5026009;28;20220;-65
2023/06/20 09:50:15;;;;;;;9.60;6.57;;;;;;;;;;5022936;28;20228;-63
2023/06/20 09:52:44;;;;;;;7.03;5.55;;;;;;;;;;5023440;28;20204;-64
2023/06/20 09:55:11;;;;;;;7.25;5.07;;;;;;;;;;5023168;28;20426;-64
2023/06/20 09:57:38;;;;;;;9.02;5.07;;;;;;;;;;5034006;28;20219;-64
2023/06/20 10:00:10;;;;;;;7.35;5.18;;;;;;;;;;5028904;28;20217;-63
2023/06/20 10:02:35;;;;;;;6.78;4.85;;;;;;;;;;5016547;28;20208;-64
2023/06/20 10:05:00;;;;;;;8.45;5.28;;;;;;;;;;5033428;28;20234;-63
2023/06/20 10:07:26;;;;;;;6.88;4.95;;;;;;;;;;5021098;28;20252;-63
2023/06/20 10:09:54;;;;;;;9.27;5.00;;;;;;;;;;5019138;28;20246;-64
2023/06/20 10:12:19;;;;;;;5.97;4.72;;;;;;;;;;5030013;28;20215;-63
2023/06/20 10:14:45;;;;;;;6.05;4.70;;;;;;;;;;5023070;28;20212;-64
2023/06/20 10:17:16;;;;;;;6.68;5.18;;;;;;;;;;5014429;28;20235;-63
2023/06/20 10:19:47;;;;;;;7.82;5.32;;;;;;;;;;5025974;28;20451;-63
2023/06/20 10:22:13;;;;;;;10.85;6.78;;;;;;;;;;5033375;28;20679;-65
2023/06/20 10:24:38;;;;;;;9.20;6.07;;;;;;;;;;5032589;28;20273;-65
2023/06/20 10:27:04;;;;;;;8.07;5.97;;;;;;;;;;5033139;28;20318;-63
2023/06/20 10:29:31;;;;;;;8.38;5.10;;;;;;;;;;5034193;28;20584;-64
2023/06/20 10:32:03;;;;;;;7.13;4.70;;;;;;;;;;5032810;28;20222;-64
2023/06/20 10:34:29;;;;;;;8.63;5.15;;;;;;;;;;5033162;28;20211;-64
2023/06/20 10:37:07;;;;;;;8.20;5.60;;;;;;;;;;5033894;28;20342;-64
2023/06/20 10:39:32;;;;;;;8.63;5.60;;;;;;;;;;5032244;28;20204;-63
2023/06/20 10:41:58;;;;;;;8.00;4.60;;;;;;;;;;5033202;28;20231;-63
2023/06/20 10:44:29;;;;;;;9.05;4.68;;;;;;;;;;5032138;28;20640;-64
2023/06/20 10:46:54;;;;;;;6.72;4.60;;;;;;;;;;5033079;28;20232;-64
2023/06/20 10:49:19;;;;;;;8.40;4.78;;;;;;;;;;5033389;28;20216;-64
2023/06/20 10:51:45;;;;;;;7.57;4.47;;;;;;;;;;5033813;28;20211;-64
2023/06/20 10:54:10;;;;;;;7.18;4.25;;;;;;;;;;5032380;28;20646;-64
2023/06/20 10:56:36;;;;;;;6.53;3.92;;;;;;;;;;5033460;28;20224;-64
2023/06/20 10:59:10;;;;;;;5.90;3.72;;;;;;;;;;5033447;28;20219;-64
2023/06/20 11:01:36;;;;;;;7.85;4.20;;;;;;;;;;5022307;28;20294;-64
2023/06/20 11:04:02;;;;;;;6.63;4.00;;;;;;;;;;5013394;28;20334;-63
2023/06/20 11:06:28;;;;;;;5.63;3.80;;;;;;;;;;5013611;28;20224;-64
2023/06/20 11:08:56;;;;;;;5.35;3.75;;;;;;;;;;5021361;28;20690;-64
2023/06/20 11:11:34;;;;;;;5.78;3.60;;;;;;;;;;5033200;28;20235;-64
2023/06/20 11:14:09;;;;;;;5.72;3.92;;;;;;;;;;5027879;28;20299;-67
2023/06/20 11:16:34;;;;;;;5.38;3.45;;;;;;;;;;4999773;28;20231;-64
2023/06/20 11:18:59;;;;;;;5.25;3.53;;;;;;;;;;5013540;28;20668;-64
2023/06/20 11:21:25;;;;;;;5.03;3.47;;;;;;;;;;5011899;28;20208;-64
2023/06/20 11:23:57;;;;;;;4.20;3.40;;;;;;;;;;5011218;28;20690;-64
2023/06/20 11:26:27;;;;;;;5.03;3.30;;;;;;;;;;5013191;28;20223;-63
2023/06/20 11:28:58;;;;;;;5.28;3.72;;;;;;;;;;5013569;28;20209;-64
2023/06/20 11:31:24;;;;;;;7.22;3.85;;;;;;;;;;5012840;28;20212;-64
2023/06/20 11:33:49;;;;;;;7.05;3.40;;;;;;;;;;5013364;28;20675;-64
2023/06/20 11:36:15;;;;;;;5.85;3.88;;;;;;;;;;5012088;28;20212;-64
2023/06/20 11:38:40;;;;;;;5.43;3.50;;;;;;;;;;5012838;28;20689;-63
2023/06/20 11:41:06;;;;;;;4.93;3.50;;;;;;;;;;5012609;28;20240;-63
2023/06/20 11:43:38;;;;;;;5.63;3.10;;;;;;;;;;5012399;28;20295;-64
2023/06/20 11:46:04;;;;;;;5.88;3.50;;;;;;;;;;5012561;28;20683;-64
2023/06/20 11:48:29;;;;;;;5.32;3.38;;;;;;;;;;5013111;28;20215;-64
2023/06/20 11:50:59;;;;;;;6.03;3.30;;;;;;;;;;5012233;28;20609;-64
2023/06/20 11:53:25;;;;;;;3.92;3.03;;;;;;;;;;5012192;28;20220;-64
2023/06/20 11:55:51;;;;;;;4.55;3.00;;;;;;;;;;5023200;28;20698;-64
2023/06/20 11:58:17;;;;;;;6.38;3.63;;;;;;;;;;5030099;28;20238;-64
2023/06/20 12:00:46;;;;;;;5.38;3.20;;;;;;;;;;5029416;28;20564;-64
2023/06/20 12:03:14;;;;;;;5.15;3.40;;;;;;;;;;5012273;28;20283;-63
2023/06/20 12:05:40;;;;;;;4.30;3.30;;;;;;;;;;5011871;28;20625;-64
2023/06/20 12:08:05;;;;;;;4.75;3.10;;;;;;;;;;5013461;28;20228;-63
2023/06/20 12:10:31;;;;;;;5.90;3.33;;;;;;;;;;5032390;28;20654;-63
2023/06/20 12:12:56;;;;;;;11.57;3.83;;;;;;;;;;5031649;28;20273;-64
2023/06/20 12:15:21;;;;;;;5.43;3.30;;;;;;;;;;5021311;28;20213;-64
2023/06/20 12:17:47;;;;;;;5.45;3.60;;;;;;;;;;5012542;28;20270;-64
2023/06/20 12:20:13;;;;;;;7.30;3.30;;;;;;;;;;5011431;28;20710;-63
2023/06/20 12:22:38;;;;;;;4.35;3.50;;;;;;;;;;5012608;28;20304;-63
2023/06/20 12:25:04;;;;;;;6.60;3.78;;;;;;;;;;5011949;28;20267;-64
2023/06/20 12:27:29;;;;;;;3.97;3.20;;;;;;;;;;5010393;28;20703;-64
2023/06/20 12:29:54;;;;;;;4.90;3.40;;;;;;;;;;5012557;28;20216;-64
2023/06/20 12:32:20;;;;;;;7.28;3.50;;;;;;;;;;5011166;28;20228;-64
2023/06/20 12:34:45;;;;;;;8.07;4.00;;;;;;;;;;5012813;28;20220;-63
2023/06/20 12:37:11;;;;;;;5.55;3.30;;;;;;;;;;5031921;28;20306;-63
2023/06/20 12:39:36;;;;;;;7.30;3.00;;;;;;;;;;5031157;28;20663;-63
2023/06/20 12:42:01;;;;;;;4.70;3.00;;;;;;;;;;5031663;28;20307;-63
2023/06/20 12:44:26;;;;;;;4.45;3.05;;;;;;;;;;5032013;28;20247;-63
2023/06/20 12:46:52;;;;;;;6.38;3.05;;;;;;;;;;5031383;28;20251;-64
2023/06/20 12:49:19;;;;;;;4.13;3.00;;;;;;;;;;5030303;28;20250;-64
2023/06/20 12:51:45;;;;;;;4.78;3.05;;;;;;;;;;5031990;28;20728;-64
2023/06/20 12:54:10;;;;;;;4.85;2.90;;;;;;;;;;5030483;28;20239;-63
2023/06/20 12:56:35;;;;;;;5.63;2.90;;;;;;;;;;5015424;28;20216;-64
2023/06/20 12:59:04;;;;;;;4.30;2.67;;;;;;;;;;5011941;28;20266;-63
2023/06/20 13:01:30;;;;;;;3.67;2.95;;;;;;;;;;5011244;28;20287;-64
2023/06/20 13:03:55;;;;;;;3.15;2.70;;;;;;;;;;5012069;28;20215;-64
2023/06/20 13:06:21;;;;;;;4.68;3.17;;;;;;;;;;5011608;28;20224;-64
2023/06/20 13:08:46;;;;;;;4.68;2.88;;;;;;;;;;5019317;28;20242;-64
2023/06/20 13:11:13;;;;;;;4.72;2.70;;;;;;;;;;5031226;28;20239;-64
2023/06/20 13:13:39;;;;;;;6.30;2.90;;;;;;;;;;5031917;28;20220;-64
2023/06/20 13:16:04;;;;;;;6.40;2.70;;;;;;;;;;5015659;28;20305;-63
2023/06/20 13:18:29;;;;;;;4.30;2.50;;;;;;;;;;5011831;28;20659;-63
2023/06/20 13:20:55;;;;;;;3.47;2.70;;;;;;;;;;5014620;28;20679;-63
2023/06/20 13:23:20;;;;;;;6.75;2.53;;;;;;;;;;5014603;28;20691;-63
2023/06/20 13:25:45;;;;;;;4.68;2.20;;;;;;;;;;5015441;28;20672;-64
2023/06/20 13:28:11;;;;;;;2.47;2.00;;;;;;;;;;5015175;28;20221;-64
2023/06/20 13:30:36;;;;;;;3.90;2.40;;;;;;;;;;5015046;28;20212;-64
2023/06/20 13:33:02;;;;;;;3.55;2.50;;;;;;;;;;5015162;28;20216;-63
2023/06/20 13:35:28;;;;;;;4.22;2.20;;;;;;;;;;5015418;28;20212;-63
2023/06/20 13:37:53;;;;;;;4.75;2.30;;;;;;;;;;5014783;28;20571;-63
2023/06/20 13:40:22;;;;;;;3.97;2.28;;;;;;;;;;5014620;28;20232;-63
2023/06/20 13:42:48;;;;;;;3.45;2.35;;;;;;;;;;5014595;28;20224;-63
2023/06/20 13:45:14;;;;;;;5.68;2.63;;;;;;;;;;5014884;28;20212;-63
2023/06/20 13:47:40;;;;;;;3.40;2.10;;;;;;;;;;5015175;28;20259;-64
2023/06/20 13:50:06;;;;;;;6.07;2.70;;;;;;;;;;5013936;28;20216;-63
2023/06/20 13:52:31;;;;;;;2.72;2.30;;;;;;;;;;5015210;28;20208;-63
2023/06/20 13:54:56;;;;;;;4.97;2.63;;;;;;;;;;5017872;28;20231;-63
2023/06/20 13:57:22;;;;;;;6.38;2.45;;;;;;;;;;5033602;28;20207;-64
2023/06/20 13:59:47;;;;;;;4.82;2.38;;;;;;;;;;5034863;28;20303;-64
2023/06/20 14:02:12;;;;;;;2.42;2.08;;;;;;;;;;5018802;28;20216;-64
2023/06/20 14:04:38;;;;;;;3.92;2.47;;;;;;;;;;5014007;28;20259;-64
2023/06/20 14:07:05;;;;;;;3.38;2.35;;;;;;;;;;5014421;28;20267;-63
2023/06/20 14:09:30;;;;;;;4.10;2.20;;;;;;;;;;5027278;28;20262;-63
2023/06/20 14:11:56;;;;;;;3.53;2.30;;;;;;;;;;5033771;28;20220;-63
2023/06/20 14:14:22;;;;;;;2.95;2.40;;;;;;;;;;5033073;28;20214;-63
2023/06/20 14:16:48;;;;;;;3.53;2.30;;;;;;;;;;5014891;28;20236;-63
2023/06/20 14:19:14;;;;;;;4.20;2.10;;;;;;;;;;5013642;28;20290;-63
2023/06/20 14:21:39;;;;;;;4.00;2.22;;;;;;;;;;5014623;28;20220;-63
2023/06/20 14:24:04;;;;;;;5.82;2.75;;;;;;;;;;5014028;28;20225;-63